Terminal Aerodrome Forecast
Issued by NWS Lake Charles, LA

Home | Current Version | Previous Version | Text Only | Print | Product List | Glossary On
Versions: 1 2 3 4 5 6 7 8 9 10 11 12 13 14 15 16 17 18 19 20 21 22 23 24 25 26 27
000
FTUS44 KLCH 212000 AAA
TAFLFT
TAF AMD
KLFT 212016Z 2120/2218 VRB04KT 6SM BR OVC005
     FM212200 14003KT P6SM SCT007 OVC015
     FM220600 16003KT 5SM BR BKN015
     FM220900 18003KT 2SM BR OVC007=

USA.gov is the U.S. government's official web portal to all federal, state and local government web resources and services.